ICAO code: LHPR | IATA code: QGY | AFTN: LHPRZPZX | english | deutsch
Időjárás: 2018-06-21 16:00 (UTC) | Hőmérséklet: 29.8 °C | QNH: 1010.5 hPa | Szél: 4.1 m/s | Részletek
Live ATC LHPR
Webkameránk élőképe

Győr-Pér Repülőtér időjárás adatok

Metar:
METAR LHPR 211545Z 20009KT 170V250 CAVOK 30/18 Q1010 RMK BL


Taf:
TAF LHPR 211415Z 2115/2124 21011KT CAVOK TEMPO 2118/2122
VRB18G32KT 6000 SHRA TSRA SCT030CB BKN040 BECMG 2119/2121
29015G26KT 8000 SHRA RA BKN025 OVC040


Jelenidő:
Nem volt érdemleges időjárási jelenség az elmúlt órában
Időbélyeg: 2018-06-21 16:00:00 UTC
Hőmérséklet:
29.8 °C
 
Harmatpont:
18.3 °C
 
Rel. páratartalom:
50%
 
QNH:
1010.5 hPa
 
Szélsebesség:
4.1 m/s
Max:
6.1 m/s
Szélirány:
190°
 
Csapadék (1 óra):
0.0 mm
 
Látótávolság:
16530 m
 
RVR:
>1500 m RWY30
 
1. felhőréteg mennyisége:
0 octa
 
1. felhőréteg alapja:
m


Az adatokat szolgáltatja
az Országos Meteorológiai Szolgálat
Győr-Pér Repülőtér | H 9099 Pér, Repülőtér | Tel: +36/96/559-200 | Fax: +36/96/559-202

ICAO code: LHPR | IATA code: QGY | AFTN: LHPRZPZX


weboldal tervezés: IRQ